Time;durP1;ratioP1;P1;durP2;ratioP2;P2;SDS_P1;SDS_P2;PMS_P1;PMS_P2;Temp;Humidity;BMP_temperature;BMP_pressure;BME280_temperature;BME280_humidity;BME280_pressure;Samples;Min_cycle;Max_cycle;Signal;HPM_P1;HPM_P2
2022/09/19 00:02:35;;;;;;;1.88;1.00;;;9.70;99.90;;;;;;8318669;28;20018;-82
2022/09/19 00:06:37;;;;;;;1.42;0.80;;;9.60;99.90;;;;;;8313758;28;20044;-81
2022/09/19 00:10:40;;;;;;;1.08;0.60;;;9.60;99.90;;;;;;8331952;28;20165;-83
2022/09/19 00:14:41;;;;;;;2.67;1.10;;;9.60;99.90;;;;;;8314907;28;20055;-82
2022/09/19 00:18:41;;;;;;;4.40;1.30;;;9.60;99.90;;;;;;8321318;28;20029;-80
2022/09/19 00:24:45;;;;;;;3.60;1.20;;;9.60;99.90;;;;;;8333122;28;20026;-82
2022/09/19 00:27:04;;;;;;;2.25;0.90;;;9.40;99.90;;;;;;8332489;28;20029;-82
2022/09/19 00:31:05;;;;;;;2.67;1.13;;;9.30;99.90;;;;;;8327016;28;20132;-82
2022/09/19 00:35:08;;;;;;;2.45;1.30;;;9.20;99.90;;;;;;8324380;28;20159;-82
2022/09/19 00:39:10;;;;;;;1.40;0.90;;;9.10;99.90;;;;;;8338925;28;20022;-81
2022/09/19 00:43:14;;;;;;;2.20;0.90;;;9.20;99.90;;;;;;8324354;28;20030;-81
2022/09/19 00:47:18;;;;;;;2.03;1.10;;;9.10;99.90;;;;;;8324575;28;20463;-82
2022/09/19 00:51:34;;;;;;;2.13;1.10;;;9.00;99.90;;;;;;8322412;28;20538;-81
2022/09/19 00:55:36;;;;;;;5.35;1.00;;;9.00;99.90;;;;;;8327871;28;20095;-81
2022/09/19 00:59:40;;;;;;;1.75;0.73;;;8.90;99.90;;;;;;8334400;28;20021;-82
2022/09/19 01:03:41;;;;;;;0.77;0.60;;;8.90;99.90;;;;;;8337691;28;20067;-82
2022/09/19 01:08:12;;;;;;;0.52;0.43;;;8.80;99.90;;;;;;8320425;28;20026;-82
2022/09/19 01:12:32;;;;;;;0.68;0.60;;;8.80;99.90;;;;;;8315639;28;20116;-81
2022/09/19 01:16:41;;;;;;;0.80;0.70;;;8.80;99.90;;;;;;8322247;28;20079;-80
2022/09/19 01:20:45;;;;;;;1.40;0.55;;;8.80;99.90;;;;;;8318518;28;20030;-80
2022/09/19 01:24:55;;;;;;;2.80;1.10;;;8.90;99.90;;;;;;8317743;28;20112;-80
2022/09/19 01:29:07;;;;;;;2.63;0.65;;;8.80;99.90;;;;;;8323232;28;20107;-81
2022/09/19 01:33:17;;;;;;;0.50;0.50;;;8.90;99.90;;;;;;8318715;28;20557;-82
2022/09/19 01:37:30;;;;;;;0.90;0.57;;;8.80;99.90;;;;;;8337124;28;20082;-82
2022/09/19 01:41:30;;;;;;;0.80;0.68;;;8.60;99.90;;;;;;8318507;28;20051;-82
2022/09/19 01:45:40;;;;;;;1.55;0.40;;;8.70;99.90;;;;;;8327265;28;20490;-82
2022/09/19 01:50:16;;;;;;;1.65;0.93;;;8.70;99.90;;;;;;8327254;28;20108;-81
2022/09/19 01:54:48;;;;;;;2.28;0.80;;;8.60;99.90;;;;;;8355574;22;20080;-82
2022/09/19 01:58:55;;;;;;;;;;;8.60;99.90;;;;;;8315829;28;20033;-81
2022/09/19 02:03:01;;;;;;;2.25;0.75;;;8.50;99.90;;;;;;8331049;28;19905;-81
2022/09/19 02:07:13;;;;;;;1.00;0.88;;;8.50;99.90;;;;;;8317671;28;20034;-83
2022/09/19 02:11:19;;;;;;;0.75;0.63;;;8.50;99.90;;;;;;8303975;28;20258;-82
2022/09/19 02:15:26;;;;;;;2.85;0.80;;;8.50;99.90;;;;;;8334261;28;20086;-83
2022/09/19 02:19:32;;;;;;;0.60;0.60;;;8.40;99.90;;;;;;8322091;28;20034;-82
2022/09/19 02:23:45;;;;;;;2.30;0.73;;;8.40;99.90;;;;;;8348466;28;20081;-83
2022/09/19 02:27:50;;;;;;;0.60;0.60;;;8.30;99.90;;;;;;8318443;28;20026;-83
2022/09/19 02:31:50;;;;;;;0.68;0.60;;;8.30;99.90;;;;;;8311499;28;20021;-82
2022/09/19 02:36:05;;;;;;;0.50;0.50;;;8.20;99.90;;;;;;8312693;28;20027;-83
2022/09/19 02:40:23;;;;;;;1.55;0.73;;;8.10;99.90;;;;;;8336088;28;20038;-83
2022/09/19 02:44:48;;;;;;;0.68;0.60;;;8.10;99.90;;;;;;8307853;28;20110;-82
2022/09/19 02:48:55;;;;;;;0.85;0.73;;;8.00;99.90;;;;;;8320313;28;20083;-82
2022/09/19 02:52:59;;;;;;;0.60;0.57;;;8.10;99.90;;;;;;8334892;28;20045;-83
2022/09/19 02:57:06;;;;;;;0.60;0.52;;;8.10;99.90;;;;;;8343640;28;20083;-82
2022/09/19 03:01:14;;;;;;;0.80;0.70;;;7.80;99.90;;;;;;8324568;28;20068;-82
2022/09/19 03:05:20;;;;;;;1.17;0.40;;;7.60;99.90;;;;;;8308179;28;20049;-83
2022/09/19 03:09:24;;;;;;;0.45;0.40;;;7.50;99.90;;;;;;8309707;28;20018;-83
2022/09/19 03:13:25;;;;;;;0.40;0.40;;;7.30;99.90;;;;;;8310318;28;20469;-83
2022/09/19 03:17:31;;;;;;;0.43;0.40;;;7.00;99.90;;;;;;8325316;28;20021;-82
2022/09/19 03:21:33;;;;;;;0.50;0.50;;;6.70;99.90;;;;;;8317352;28;20018;-81
2022/09/19 03:25:34;;;;;;;0.73;0.50;;;6.60;99.90;;;;;;8310180;28;20079;-82
2022/09/19 03:29:36;;;;;;;1.00;0.50;;;6.50;99.90;;;;;;8305074;28;20069;-83
2022/09/19 03:33:36;;;;;;;0.55;0.55;;;6.30;99.90;;;;;;8307632;28;20021;-82
2022/09/19 03:37:37;;;;;;;0.63;0.50;;;6.00;99.90;;;;;;8300842;28;20026;-82
2022/09/19 03:41:38;;;;;;;0.85;0.40;;;5.70;99.90;;;;;;8312019;28;20040;-81
2022/09/19 03:45:38;;;;;;;0.40;0.40;;;5.50;99.90;;;;;;8296323;28;20052;-81
2022/09/19 03:49:39;;;;;;;3.30;0.60;;;5.50;99.90;;;;;;8320891;28;20026;-82
2022/09/19 03:53:42;;;;;;;0.70;0.60;;;5.40;99.90;;;;;;8312516;28;20033;-83
2022/09/19 03:57:42;;;;;;;1.48;0.63;;;5.50;99.90;;;;;;8319732;28;20378;-83
2022/09/19 04:01:43;;;;;;;4.97;0.70;;;5.40;99.90;;;;;;8308164;28;20029;-82
2022/09/19 04:05:44;;;;;;;1.27;0.50;;;5.30;99.90;;;;;;8299853;28;20056;-81
2022/09/19 04:09:45;;;;;;;0.57;0.43;;;5.20;99.90;;;;;;8313381;28;20026;-82
2022/09/19 04:13:48;;;;;;;0.50;0.50;;;5.00;99.90;;;;;;8302389;28;20033;-80
2022/09/19 04:17:49;;;;;;;0.50;0.50;;;4.90;99.90;;;;;;8291941;28;20034;-82
2022/09/19 04:21:49;;;;;;;2.30;0.70;;;4.90;99.90;;;;;;8321771;28;20583;-82
2022/09/19 04:25:50;;;;;;;3.22;0.75;;;4.90;99.90;;;;;;8332730;28;20013;-82
2022/09/19 04:29:51;;;;;;;5.32;0.65;;;5.40;99.90;;;;;;8331391;28;20451;-82
2022/09/19 04:33:54;;;;;;;1.83;0.65;;;5.30;99.90;;;;;;8303156;28;20030;-81
2022/09/19 04:37:54;;;;;;;2.85;0.65;;;5.20;99.90;;;;;;8310363;28;20127;-81
2022/09/19 04:41:55;;;;;;;1.35;0.60;;;5.20;99.90;;;;;;8294453;28;20026;-81
2022/09/19 04:45:56;;;;;;;1.60;0.50;;;5.30;99.90;;;;;;8310924;28;20018;-81
2022/09/19 04:49:57;;;;;;;1.30;0.55;;;5.10;99.90;;;;;;8297845;28;20502;-82
2022/09/19 04:53:57;;;;;;;2.25;0.60;;;5.00;99.90;;;;;;8326132;28;20184;-80
2022/09/19 04:58:00;;;;;;;5.22;0.63;;;4.80;99.90;;;;;;8305538;28;20121;-80
2022/09/19 05:02:02;;;;;;;0.75;0.60;;;4.60;99.90;;;;;;8311815;28;20018;-80
2022/09/19 05:06:06;;;;;;;1.52;0.65;;;4.50;99.90;;;;;;8311295;28;20034;-82
2022/09/19 05:10:07;;;;;;;2.55;1.00;;;4.40;99.90;;;;;;8319493;28;20116;-81
2022/09/19 05:14:09;;;;;;;1.27;0.77;;;4.50;99.90;;;;;;8314070;28;20041;-82
2022/09/19 05:18:10;;;;;;;2.20;0.70;;;4.40;99.90;;;;;;8304806;28;20029;-80
2022/09/19 05:22:11;;;;;;;4.45;1.17;;;4.40;99.90;;;;;;8321656;28;20045;-80
2022/09/19 05:26:15;;;;;;;1.50;0.82;;;4.70;99.90;;;;;;8317414;28;20049;-81
2022/09/19 05:30:15;;;;;;;2.83;1.00;;;4.70;99.90;;;;;;8315895;28;20414;-81
2022/09/19 05:34:16;;;;;;;6.53;1.10;;;5.10;99.90;;;;;;8311038;28;20034;-81
2022/09/19 05:38:16;;;;;;;3.53;0.93;;;5.20;99.90;;;;;;8315266;28;20048;-82
2022/09/19 05:42:17;;;;;;;1.50;0.90;;;5.10;99.90;;;;;;8308037;28;20018;-82
2022/09/19 05:46:20;;;;;;;6.32;2.50;;;5.30;99.90;;;;;;8311157;28;20552;-82
2022/09/19 05:50:20;;;;;;;1.92;1.55;;;5.40;99.90;;;;;;8311061;28;20041;-82
2022/09/19 05:54:21;;;;;;;5.60;1.50;;;5.40;99.90;;;;;;8295534;28;20315;-82
2022/09/19 05:58:22;;;;;;;4.65;1.13;;;5.50;99.90;;;;;;8298958;28;20060;-82
2022/09/19 06:02:23;;;;;;;2.80;0.95;;;5.80;99.90;;;;;;8276616;28;20433;-81
2022/09/19 06:06:23;;;;;;;7.03;1.48;;;6.00;99.90;;;;;;8284456;28;20066;-81
2022/09/19 06:10:25;;;;;;;2.75;1.13;;;6.40;99.90;;;;;;8299640;28;20030;-82
2022/09/19 06:14:27;;;;;;;2.65;0.90;;;6.70;99.90;;;;;;8283120;28;20033;-82
2022/09/19 06:18:28;;;;;;;1.88;0.95;;;7.00;99.90;;;;;;8287616;28;20030;-82
2022/09/19 06:22:30;;;;;;;2.28;0.80;;;7.30;99.90;;;;;;8292876;28;20486;-82
2022/09/19 06:26:30;;;;;;;3.60;1.20;;;7.50;99.90;;;;;;8281568;28;20041;-81
2022/09/19 06:30:31;;;;;;;5.45;1.00;;;7.70;99.90;;;;;;8287067;28;20453;-82
2022/09/19 06:34:32;;;;;;;4.60;1.90;;;7.80;99.90;;;;;;8280993;28;20029;-82
2022/09/19 06:38:32;;;;;;;5.82;1.00;;;7.80;99.90;;;;;;8286345;28;20446;-82
2022/09/19 06:42:33;;;;;;;6.57;1.15;;;7.90;99.90;;;;;;8278097;28;20041;-81
2022/09/19 06:46:37;;;;;;;4.65;0.90;;;8.00;99.90;;;;;;8289282;28;20022;-82
2022/09/19 06:50:37;;;;;;;4.18;0.98;;;7.80;99.90;;;;;;8284598;28;20025;-81
2022/09/19 06:54:38;;;;;;;2.40;0.73;;;8.10;99.90;;;;;;8272719;28;20038;-82
2022/09/19 06:58:39;;;;;;;4.07;0.73;;;8.40;99.90;;;;;;8282749;28;20026;-82
2022/09/19 07:02:40;;;;;;;4.22;0.90;;;8.70;99.90;;;;;;8288595;28;20133;-80
2022/09/19 07:06:41;;;;;;;4.03;0.82;;;9.00;99.90;;;;;;8290316;28;20024;-81
2022/09/19 07:10:43;;;;;;;4.22;0.80;;;9.20;99.90;;;;;;8289780;28;20032;-82
2022/09/19 07:14:43;;;;;;;6.03;0.70;;;9.80;99.90;;;;;;8281637;28;20034;-83
2022/09/19 07:18:45;;;;;;;23.88;12.27;;;9.90;99.90;;;;;;8279404;28;20042;-82
2022/09/19 07:22:47;;;;;;;2.45;0.52;;;9.80;99.90;;;;;;8287740;28;20117;-80
2022/09/19 07:26:47;;;;;;;2.08;1.10;;;10.00;99.90;;;;;;8301648;28;20069;-82
2022/09/19 07:30:48;;;;;;;2.70;0.60;;;10.00;99.90;;;;;;8289408;28;20390;-83
2022/09/19 07:34:49;;;;;;;3.00;0.70;;;9.90;99.90;;;;;;8290469;28;20062;-81
2022/09/19 07:38:50;;;;;;;6.53;0.90;;;9.90;99.90;;;;;;8300220;28;20576;-83
2022/09/19 07:42:51;;;;;;;2.65;0.50;;;10.10;99.90;;;;;;8286878;28;20397;-81
2022/09/19 07:51:11;;;;;;;2.75;0.90;;;10.40;99.90;;;;;;8296145;28;20041;-81
2022/09/19 07:55:12;;;;;;;2.15;0.63;;;10.90;99.90;;;;;;8312670;22;20069;-91
2022/09/19 07:59:13;;;;;;;3.00;0.80;;;11.20;99.90;;;;;;8308255;28;20037;-91
2022/09/19 08:03:15;;;;;;;2.95;0.68;;;11.50;99.90;;;;;;8292245;28;20026;-91
2022/09/19 08:07:16;;;;;;;0.90;0.47;;;11.30;99.90;;;;;;8314459;28;20494;-90
2022/09/19 08:11:21;;;;;;;3.03;0.70;;;11.60;99.90;;;;;;8313705;28;20036;-90
2022/09/19 08:15:22;;;;;;;3.38;0.75;;;11.30;99.90;;;;;;8308184;28;20065;-90
2022/09/19 08:19:22;;;;;;;4.22;0.75;;;11.30;99.90;;;;;;8299866;28;20030;-90
2022/09/19 08:23:23;;;;;;;8.05;1.08;;;11.50;99.90;;;;;;8302192;28;20029;-90
2022/09/19 08:27:24;;;;;;;4.15;0.88;;;11.70;99.90;;;;;;8298633;28;20041;-92
2022/09/19 08:31:25;;;;;;;5.55;0.80;;;12.20;99.90;;;;;;8296669;28;20117;-92
2022/09/19 08:35:27;;;;;;;3.88;0.80;;;12.80;99.90;;;;;;8301892;28;20197;-91
2022/09/19 08:39:28;;;;;;;3.15;0.88;;;13.10;99.90;;;;;;8298374;28;20034;-90
2022/09/19 08:43:56;;;;;;;8.57;0.95;;;12.80;99.90;;;;;;8304107;28;20024;-91
2022/09/19 08:48:01;;;;;;;4.22;1.05;;;12.70;99.90;;;;;;8284807;28;20091;-91
2022/09/19 08:52:07;;;;;;;3.85;0.75;;;12.50;99.90;;;;;;8306638;28;20025;-91
2022/09/19 08:56:11;;;;;;;4.88;0.80;;;12.40;99.90;;;;;;8302316;28;20478;-90
2022/09/19 09:00:19;;;;;;;3.08;0.60;;;12.90;99.90;;;;;;8315797;28;20092;-93
2022/09/19 09:04:30;;;;;;;6.07;0.70;;;13.50;99.90;;;;;;8312146;28;20028;-91
2022/09/19 09:08:50;;;;;;;4.18;0.88;;;13.40;99.90;;;;;;8307726;28;20132;-92
2022/09/19 09:13:13;;;;;;;4.67;0.90;;;13.70;99.90;;;;;;8314230;28;20025;-90
2022/09/19 09:17:19;;;;;;;6.00;0.95;;;13.70;99.90;;;;;;8309000;28;20041;-90
2022/09/19 09:21:25;;;;;;;2.80;0.80;;;13.50;99.90;;;;;;8296894;28;20037;-90
2022/09/19 09:25:30;;;;;;;6.57;0.88;;;14.10;99.90;;;;;;8314357;28;20393;-92
2022/09/19 09:29:43;;;;;;;3.85;0.93;;;14.40;99.90;;;;;;8307801;28;20397;-90
2022/09/19 09:33:58;;;;;;;2.80;0.77;;;14.60;99.90;;;;;;8309912;28;20030;-90
2022/09/19 09:38:13;;;;;;;5.15;0.70;;;14.70;99.90;;;;;;8305897;28;20456;-90
2022/09/19 09:42:16;;;;;;;7.20;0.90;;;14.60;99.90;;;;;;8311502;28;20032;-91
2022/09/19 09:46:24;;;;;;;2.67;0.60;;;15.20;99.90;;;;;;8293894;28;20495;-91
2022/09/19 09:50:50;;;;;;;4.82;0.98;;;15.20;99.90;;;;;;8299466;28;20026;-91
2022/09/19 10:04:15;;;;;;;5.05;0.85;;;15.90;99.90;;;;;;8312061;28;20087;-91
2022/09/19 10:08:33;;;;;;;2.15;0.65;;;15.80;99.90;;;;;;8308194;28;20406;-91
2022/09/19 10:12:55;;;;;;;2.80;0.60;;;15.10;99.90;;;;;;8291909;28;20075;-91
2022/09/19 10:17:01;;;;;;;2.28;0.40;;;14.40;99.90;;;;;;8306624;28;20555;-91
2022/09/19 10:21:02;;;;;;;1.42;0.60;;;14.00;99.90;;;;;;8306602;28;20049;-91
2022/09/19 10:25:13;;;;;;;2.70;0.63;;;14.10;99.90;;;;;;8306731;28;20032;-91
2022/09/19 10:29:22;;;;;;;0.80;0.30;;;14.20;99.90;;;;;;8300523;28;20025;-91
2022/09/19 10:33:45;;;;;;;1.00;0.60;;;13.40;99.90;;;;;;8309877;28;20048;-91
2022/09/19 10:37:51;;;;;;;1.17;0.57;;;14.10;99.90;;;;;;8301408;28;20057;-92
2022/09/19 10:41:51;;;;;;;1.92;0.40;;;16.20;99.90;;;;;;8296496;28;20343;-92
2022/09/19 10:45:52;;;;;;;0.93;0.50;;;16.60;99.90;;;;;;8295905;28;20018;-91
2022/09/19 10:49:59;;;;;;;0.70;0.20;;;15.60;99.90;;;;;;8316157;28;20042;-91
2022/09/19 10:54:00;;;;;;;2.10;0.30;;;15.70;99.90;;;;;;8305097;28;20076;-91
2022/09/19 10:58:13;;;;;;;2.58;0.50;;;15.70;99.90;;;;;;8304888;28;20449;-91
2022/09/19 11:02:21;;;;;;;1.02;0.40;;;15.30;99.90;;;;;;8295977;28;20382;-92
2022/09/19 11:06:22;;;;;;;1.17;0.38;;;17.40;99.90;;;;;;8295357;28;20120;-91
2022/09/19 11:10:38;;;;;;;1.65;0.40;;;18.60;99.90;;;;;;8295867;28;20037;-90
2022/09/19 11:14:41;;;;;;;1.45;0.30;;;17.40;99.90;;;;;;8302732;28;20557;-91
2022/09/19 11:18:44;;;;;;;2.28;0.35;;;17.00;99.90;;;;;;8296223;28;20037;-91
2022/09/19 11:23:13;;;;;;;1.05;0.50;;;15.80;99.90;;;;;;8299413;28;20026;-91
2022/09/19 11:27:43;;;;;;;3.45;0.43;;;14.90;99.90;;;;;;8304407;28;20107;-90
2022/09/19 11:32:03;;;;;;;0.77;0.30;;;14.40;99.90;;;;;;8276028;28;20038;-90
2022/09/19 11:36:19;;;;;;;1.10;0.40;;;13.80;99.90;;;;;;8291532;28;20083;-90
2022/09/19 11:40:38;;;;;;;1.63;0.40;;;13.00;99.90;;;;;;8289139;28;20062;-90
2022/09/19 11:45:08;;;;;;;0.65;0.50;;;12.50;99.90;;;;;;8292032;28;20482;-90
2022/09/19 11:49:27;;;;;;;2.42;0.30;;;12.20;99.90;;;;;;8283642;28;20045;-91
2022/09/19 11:53:48;;;;;;;1.25;0.60;;;12.80;99.90;;;;;;8296458;28;20021;-91
2022/09/19 11:58:15;;;;;;;1.60;0.50;;;15.60;99.90;;;;;;8302686;28;20025;-91
2022/09/19 12:02:34;;;;;;;1.52;0.57;;;19.30;99.90;;;;;;8306075;28;20030;-91
2022/09/19 12:06:55;;;;;;;3.42;0.50;;;19.80;99.90;;;;;;8318644;28;20022;-91
2022/09/19 12:11:05;;;;;;;1.53;0.50;;;17.60;99.90;;;;;;8308516;28;20113;-90
2022/09/19 12:15:22;;;;;;;3.65;0.60;;;16.10;99.90;;;;;;8317976;28;20108;-90
2022/09/19 12:19:32;;;;;;;2.10;0.40;;;15.60;99.90;;;;;;8305825;28;20641;-90
2022/09/19 12:28:15;;;;;;;1.65;0.60;;;13.50;99.90;;;;;;8304473;28;20515;-90
2022/09/19 12:32:27;;;;;;;0.52;0.22;;;12.70;99.90;;;;;;8307307;28;20095;-90
2022/09/19 12:36:33;;;;;;;0.55;0.25;;;12.30;99.90;;;;;;8320405;28;20489;-89
2022/09/19 12:40:40;;;;;;;3.10;0.30;;;11.90;99.90;;;;;;8304971;28;20025;-90
2022/09/19 12:44:52;;;;;;;0.75;0.45;;;12.00;99.90;;;;;;8319686;28;20029;-90
2022/09/19 12:49:16;;;;;;;0.60;0.20;;;12.70;99.90;;;;;;8305905;28;20029;-91
2022/09/19 12:53:22;;;;;;;0.98;0.40;;;13.80;99.90;;;;;;8315195;28;20021;-90
2022/09/19 12:57:30;;;;;;;0.75;0.35;;;14.50;99.90;;;;;;8323839;28;20055;-90
2022/09/19 13:01:42;;;;;;;0.43;0.32;;;16.80;99.90;;;;;;8308950;28;20030;-90
2022/09/19 13:06:00;;;;;;;0.95;0.40;;;16.20;99.90;;;;;;8316839;28;20026;-90
2022/09/19 13:10:07;;;;;;;0.32;0.25;;;14.90;99.90;;;;;;8313797;28;20026;-91
2022/09/19 13:14:20;;;;;;;0.30;0.30;;;14.30;99.90;;;;;;8312005;28;20113;-90
2022/09/19 13:27:09;;;;;;;0.77;0.20;;;11.50;99.90;;;;;;8304801;28;20037;-91
2022/09/19 13:31:17;;;;;;;0.95;0.40;;;11.60;99.90;;;;;;8302863;28;20048;-91
2022/09/19 13:35:20;;;;;;;0.20;0.20;;;12.40;99.90;;;;;;8312462;28;20014;-90
2022/09/19 13:39:53;;;;;;;0.70;0.30;;;12.70;99.90;;;;;;8313255;28;20030;-91
2022/09/19 13:44:09;;;;;;;0.30;0.20;;;12.70;99.90;;;;;;8299819;28;20029;-90
2022/09/19 13:48:34;;;;;;;0.50;0.30;;;14.20;99.90;;;;;;8307964;28;20561;-90
2022/09/19 13:52:46;;;;;;;0.50;0.32;;;15.80;99.90;;;;;;8337608;22;20041;-83
2022/09/19 13:57:01;;;;;;;2.90;0.50;;;15.60;99.90;;;;;;8311949;28;20493;-83
2022/09/19 14:01:13;;;;;;;0.50;0.40;;;14.90;99.90;;;;;;8310947;28;20121;-83
2022/09/19 14:05:19;;;;;;;1.55;0.60;;;14.80;99.90;;;;;;8337623;28;20103;-83
2022/09/19 14:09:38;;;;;;;1.27;0.65;;;14.80;99.90;;;;;;8319883;28;20124;-82
2022/09/19 14:13:40;;;;;;;0.57;0.40;;;14.50;99.90;;;;;;8316964;28;20018;-84
2022/09/19 14:17:42;;;;;;;0.50;0.40;;;13.60;99.90;;;;;;8323208;28;20033;-82
2022/09/19 14:21:55;;;;;;;0.77;0.30;;;13.10;99.90;;;;;;8313052;28;20029;-82
2022/09/19 14:26:01;;;;;;;0.38;0.30;;;12.80;99.90;;;;;;8315737;28;20025;-82
2022/09/19 14:30:15;;;;;;;0.20;0.20;;;12.60;99.90;;;;;;8313052;28;21037;-82
2022/09/19 14:34:19;;;;;;;0.55;0.30;;;12.50;99.90;;;;;;8316580;28;20017;-80
2022/09/19 14:38:42;;;;;;;1.55;0.30;;;13.00;99.90;;;;;;8331060;28;20045;-82
2022/09/19 14:43:01;;;;;;;0.65;0.38;;;13.40;99.90;;;;;;8310577;28;20048;-83
2022/09/19 14:47:21;;;;;;;0.65;0.32;;;13.70;99.90;;;;;;8314205;28;20029;-83
2022/09/19 14:51:56;;;;;;;1.38;0.38;;;14.50;99.90;;;;;;8307767;28;20029;-82
2022/09/19 14:56:01;;;;;;;0.32;0.30;;;16.30;99.90;;;;;;8317911;28;20064;-83
2022/09/19 15:00:16;;;;;;;0.77;0.40;;;17.90;99.90;;;;;;8312123;28;20029;-82
2022/09/19 15:04:23;;;;;;;1.15;0.30;;;21.30;99.90;;;;;;8331396;28;20022;-83
2022/09/19 15:08:28;;;;;;;0.20;0.10;;;21.10;99.90;;;;;;8334852;28;20025;-82
2022/09/19 15:12:35;;;;;;;0.70;0.35;;;17.60;99.90;;;;;;8311466;28;20049;-82
2022/09/19 15:16:36;;;;;;;1.85;0.32;;;15.80;99.90;;;;;;8317595;28;20026;-83
2022/09/19 15:20:37;;;;;;;0.47;0.40;;;14.80;99.90;;;;;;8329995;28;20021;-83
2022/09/19 15:24:40;;;;;;;1.40;0.43;;;13.70;99.90;;;;;;8318926;28;20022;-82
2022/09/19 15:28:42;;;;;;;1.08;0.40;;;13.00;99.90;;;;;;8317002;28;20112;-82
2022/09/19 15:32:43;;;;;;;1.27;0.40;;;12.80;99.90;;;;;;8310384;28;20030;-82
2022/09/19 15:36:44;;;;;;;0.80;0.47;;;12.70;99.90;;;;;;8314031;28;20091;-80
2022/09/19 15:40:45;;;;;;;0.85;0.30;;;12.60;99.90;;;;;;8312010;28;20044;-82
2022/09/19 15:44:46;;;;;;;1.20;0.40;;;12.90;99.90;;;;;;8334507;28;20036;-82
2022/09/19 15:48:48;;;;;;;4.05;1.25;;;13.20;99.90;;;;;;8318426;28;20486;-82
2022/09/19 15:52:49;;;;;;;1.38;0.30;;;13.40;99.90;;;;;;8310950;28;20048;-82
2022/09/19 15:56:50;;;;;;;0.55;0.47;;;13.00;99.90;;;;;;8317642;28;20025;-83
2022/09/19 16:00:52;;;;;;;1.10;0.40;;;12.60;99.90;;;;;;8313216;28;20056;-82
2022/09/19 16:05:14;;;;;;;0.68;0.40;;;12.10;99.90;;;;;;8324493;28;20033;-83
2022/09/19 16:09:18;;;;;;;0.40;0.30;;;11.80;99.90;;;;;;8320289;28;20080;-82
2022/09/19 16:13:35;;;;;;;0.47;0.30;;;11.60;99.90;;;;;;8334702;28;20033;-82
2022/09/19 16:17:51;;;;;;;0.95;0.28;;;11.40;99.90;;;;;;8341580;28;20119;-83
2022/09/19 16:21:54;;;;;;;0.85;0.40;;;11.60;99.90;;;;;;8334695;28;20037;-83
2022/09/19 16:26:00;;;;;;;0.30;0.30;;;11.70;99.90;;;;;;8340143;28;20032;-83
2022/09/19 16:30:02;;;;;;;0.90;0.50;;;11.70;99.90;;;;;;8316901;28;20025;-83
2022/09/19 16:34:28;;;;;;;1.00;0.43;;;11.70;99.90;;;;;;8322703;28;20017;-83
2022/09/19 16:38:29;;;;;;;0.60;0.40;;;11.80;99.90;;;;;;8323689;28;20037;-82
2022/09/19 16:42:32;;;;;;;0.70;0.50;;;11.70;99.90;;;;;;8331845;22;20131;-82
2022/09/19 16:46:33;;;;;;;2.17;0.40;;;11.70;99.90;;;;;;8320636;28;20289;-82
2022/09/19 16:50:39;;;;;;;0.52;0.50;;;11.70;99.90;;;;;;8332481;28;20032;-82
2022/09/19 16:54:40;;;;;;;0.30;0.30;;;11.80;99.90;;;;;;8321760;28;20053;-82
2022/09/19 16:58:41;;;;;;;4.68;0.60;;;11.60;99.90;;;;;;8340046;28;20029;-82
2022/09/19 17:02:41;;;;;;;1.17;0.57;;;11.30;99.90;;;;;;8323319;28;20097;-82
2022/09/19 17:06:42;;;;;;;0.77;0.43;;;11.00;99.90;;;;;;8330529;28;20025;-82
2022/09/19 17:10:43;;;;;;;0.60;0.40;;;10.80;99.90;;;;;;8340737;28;20459;-82
2022/09/19 17:14:45;;;;;;;1.38;0.57;;;10.90;99.90;;;;;;8329066;28;20137;-81
2022/09/19 17:18:46;;;;;;;0.75;0.50;;;10.80;99.90;;;;;;8329264;28;20112;-82
2022/09/19 17:22:47;;;;;;;1.35;0.50;;;10.40;99.90;;;;;;8321758;28;20033;-82
2022/09/19 17:26:47;;;;;;;0.50;0.50;;;10.20;99.90;;;;;;8346533;28;20532;-82
2022/09/19 17:30:50;;;;;;;1.98;0.82;;;10.00;99.90;;;;;;8321309;28;20510;-82
2022/09/19 17:34:51;;;;;;;1.92;1.20;;;9.80;99.90;;;;;;8345894;28;20017;-82
2022/09/19 17:38:51;;;;;;;1.30;0.80;;;9.80;99.90;;;;;;8338484;28;20465;-82
2022/09/19 17:42:52;;;;;;;0.77;0.50;;;9.70;99.90;;;;;;8330027;28;20040;-82
2022/09/19 17:46:52;;;;;;;1.55;0.70;;;9.30;99.90;;;;;;8341524;28;20030;-82
2022/09/19 17:50:54;;;;;;;2.28;0.82;;;9.10;99.90;;;;;;8320504;28;20029;-82
2022/09/19 17:54:55;;;;;;;1.10;0.82;;;8.80;99.90;;;;;;8326765;28;20028;-82
2022/09/19 17:59:01;;;;;;;0.75;0.73;;;8.60;99.90;;;;;;8330113;28;20052;-82
2022/09/19 18:03:17;;;;;;;1.13;0.70;;;8.40;99.90;;;;;;8332787;28;20054;-82
2022/09/19 18:07:18;;;;;;;1.05;0.73;;;8.20;99.90;;;;;;8315678;28;20075;-82
2022/09/19 18:11:19;;;;;;;2.42;0.88;;;8.20;99.90;;;;;;8338839;28;20083;-81
2022/09/19 18:15:19;;;;;;;2.05;0.82;;;8.20;99.90;;;;;;8331477;28;20040;-82
2022/09/19 18:19:20;;;;;;;2.00;0.90;;;7.90;99.90;;;;;;8346352;28;20029;-82
2022/09/19 18:23:21;;;;;;;2.35;0.70;;;7.70;99.90;;;;;;8339765;28;20370;-82
2022/09/19 18:27:22;;;;;;;1.63;0.52;;;7.50;99.90;;;;;;8341430;28;20025;-82
2022/09/19 18:31:22;;;;;;;2.33;0.60;;;7.20;99.90;;;;;;8322577;28;20493;-82
2022/09/19 18:35:23;;;;;;;3.35;1.88;;;7.30;99.90;;;;;;8346395;28;20024;-82
2022/09/19 18:39:23;;;;;;;1.65;0.85;;;7.10;99.90;;;;;;8343224;28;20122;-81
2022/09/19 18:43:25;;;;;;;2.80;1.58;;;7.10;99.90;;;;;;8338093;28;20045;-81
2022/09/19 18:47:30;;;;;;;0.85;0.55;;;7.40;99.90;;;;;;8318543;28;20034;-81
2022/09/19 18:51:31;;;;;;;0.90;0.70;;;7.60;99.90;;;;;;8308494;28;20022;-82
2022/09/19 18:55:34;;;;;;;1.17;0.70;;;7.40;99.90;;;;;;8314964;28;20478;-81
2022/09/19 18:59:34;;;;;;;5.30;1.00;;;7.30;99.90;;;;;;8323458;28;20026;-80
2022/09/19 19:03:37;;;;;;;0.95;0.88;;;7.60;99.90;;;;;;8328167;28;20060;-81
2022/09/19 19:07:39;;;;;;;5.22;1.67;;;7.50;99.90;;;;;;8325729;28;20025;-81
2022/09/19 19:11:40;;;;;;;1.60;1.30;;;7.50;99.90;;;;;;8333794;28;20056;-80
2022/09/19 19:15:41;;;;;;;1.60;1.38;;;7.40;99.90;;;;;;8323561;28;20175;-81
2022/09/19 19:19:41;;;;;;;3.50;1.30;;;7.30;99.90;;;;;;8319049;28;20033;-81
2022/09/19 19:23:42;;;;;;;1.70;1.10;;;7.00;99.90;;;;;;8335693;28;20030;-80
2022/09/19 19:27:42;;;;;;;2.47;1.38;;;6.90;99.90;;;;;;8315595;28;20440;-80
2022/09/19 19:31:43;;;;;;;1.80;1.20;;;6.70;99.90;;;;;;8332881;28;20486;-81
2022/09/19 19:36:04;;;;;;;2.28;1.13;;;6.50;99.90;;;;;;8315478;28;20017;-79
2022/09/19 19:40:06;;;;;;;1.73;1.10;;;6.40;99.90;;;;;;8308444;28;20057;-81
2022/09/19 19:44:07;;;;;;;2.33;1.60;;;6.50;99.90;;;;;;8319765;28;20385;-81
2022/09/19 19:48:07;;;;;;;3.83;2.40;;;6.80;99.90;;;;;;8341474;28;20038;-81
2022/09/19 19:52:08;;;;;;;4.38;2.80;;;6.50;99.90;;;;;;8316057;28;20033;-81
2022/09/19 19:56:14;;;;;;;4.63;3.28;;;6.40;99.90;;;;;;8325129;28;20021;-80
2022/09/19 20:00:15;;;;;;;6.15;3.55;;;6.60;99.90;;;;;;8313774;28;20505;-81
2022/09/19 20:04:15;;;;;;;5.85;3.83;;;6.40;99.90;;;;;;8340852;28;20051;-81
2022/09/19 20:08:16;;;;;;;5.10;3.42;;;6.20;99.90;;;;;;8318912;28;20032;-81
2022/09/19 20:12:16;;;;;;;4.40;3.00;;;6.50;99.90;;;;;;8318125;28;20227;-80
2022/09/19 20:16:20;;;;;;;3.13;2.20;;;6.50;99.90;;;;;;8322829;28;20063;-81
2022/09/19 20:20:21;;;;;;;5.80;2.25;;;6.60;99.90;;;;;;8320878;28;20036;-81
2022/09/19 20:24:23;;;;;;;2.65;1.90;;;6.60;99.90;;;;;;8326175;28;20022;-81
2022/09/19 20:28:23;;;;;;;3.08;1.90;;;6.60;99.90;;;;;;8321928;28;20053;-81
2022/09/19 20:32:25;;;;;;;2.55;1.83;;;6.50;99.90;;;;;;8334438;28;20105;-81
2022/09/19 20:36:27;;;;;;;3.22;1.88;;;6.40;99.90;;;;;;8320830;28;20102;-81
2022/09/19 20:40:29;;;;;;;4.80;1.98;;;6.20;99.90;;;;;;8333650;28;20036;-80
2022/09/19 20:44:30;;;;;;;4.53;2.58;;;6.00;99.90;;;;;;8342362;28;20030;-81
2022/09/19 20:48:31;;;;;;;5.40;2.15;;;6.10;99.90;;;;;;8328464;28;20033;-80
2022/09/19 20:52:31;;;;;;;3.92;2.20;;;6.20;99.90;;;;;;8329571;28;20017;-81
2022/09/19 20:56:32;;;;;;;2.63;1.98;;;6.20;99.90;;;;;;8333915;28;20017;-81
2022/09/19 21:00:32;;;;;;;4.35;2.70;;;6.40;99.90;;;;;;8331851;28;20032;-81
2022/09/19 21:04:33;;;;;;;2.97;2.05;;;6.40;99.90;;;;;;8335680;28;20072;-81
2022/09/19 21:08:35;;;;;;;3.25;2.33;;;6.40;99.90;;;;;;8336491;28;20040;-81
2022/09/19 21:12:36;;;;;;;3.22;2.70;;;6.30;99.90;;;;;;8347905;28;20018;-80
2022/09/19 21:16:38;;;;;;;12.77;5.68;;;6.40;99.90;;;;;;8334914;28;20029;-79
2022/09/19 21:20:38;;;;;;;5.03;2.85;;;6.40;99.90;;;;;;8345089;28;20032;-80
2022/09/19 21:24:39;;;;;;;4.07;2.42;;;6.30;99.90;;;;;;8352093;28;20030;-80
2022/09/19 21:28:41;;;;;;;7.68;2.17;;;6.60;99.90;;;;;;8354180;28;20112;-81
2022/09/19 21:32:41;;;;;;;5.22;2.38;;;6.80;99.90;;;;;;8326031;28;20052;-80
2022/09/19 21:36:44;;;;;;;4.53;2.45;;;6.80;99.90;;;;;;8334473;28;20108;-81
2022/09/19 21:40:44;;;;;;;3.60;1.98;;;6.70;99.90;;;;;;8347496;28;20021;-81
2022/09/19 21:44:45;;;;;;;4.70;1.77;;;6.50;99.90;;;;;;8350565;28;20036;-79
2022/09/19 21:48:47;;;;;;;2.40;1.67;;;6.40;99.90;;;;;;8352865;28;20029;-80
2022/09/19 21:52:49;;;;;;;2.97;1.60;;;6.30;99.90;;;;;;8327735;28;20048;-81
2022/09/19 21:56:50;;;;;;;2.78;1.50;;;6.10;99.90;;;;;;8332479;28;20489;-80